Time;durP1;ratioP1;P1;durP2;ratioP2;P2;SDS_P1;SDS_P2;PMS_P1;PMS_P2;Temp;Humidity;BMP_temperature;BMP_pressure;BME280_temperature;BME280_humidity;BME280_pressure;Samples;Min_cycle;Max_cycle;Signal;HPM_P1;HPM_P2
2023/09/28 00:03:12;;;;;;;1.60;0.98;;;;;;;19.54;56.31;96854.13;10287756;28;20035;-27
2023/09/28 00:08:13;;;;;;;1.37;1.10;;;;;;;19.51;56.13;96859.22;10290997;28;20428;-27
2023/09/28 00:13:13;;;;;;;1.40;1.17;;;;;;;19.51;56.06;96849.06;10283510;28;20297;-26
2023/09/28 00:18:14;;;;;;;1.80;1.30;;;;;;;19.49;56.06;96860.91;10287913;28;20042;-27
2023/09/28 00:23:17;;;;;;;1.80;1.00;;;;;;;19.48;56.08;96854.97;10285535;28;20587;-27
2023/09/28 00:28:17;;;;;;;2.25;1.25;;;;;;;19.44;55.81;96832.97;10284072;28;20129;-27
2023/09/28 00:33:17;;;;;;;1.60;1.30;;;;;;;19.49;55.67;96840.59;10286598;28;20130;-27
2023/09/28 00:38:19;;;;;;;1.58;1.30;;;;;;;19.46;55.54;96843.13;10280491;28;20289;-26
2023/09/28 00:43:26;;;;;;;2.83;1.50;;;;;;;19.46;55.71;96832.97;10280386;28;20061;-27
2023/09/28 00:48:27;;;;;;;2.13;1.63;;;;;;;19.43;55.62;96835.53;10285027;28;20066;-26
2023/09/28 00:53:28;;;;;;;1.63;1.30;;;;;;;19.43;55.35;96846.50;10284293;28;20527;-26
2023/09/28 00:58:29;;;;;;;1.50;1.30;;;;;;;19.46;55.33;96845.66;10280800;28;20057;-27
2023/09/28 01:03:30;;;;;;;1.85;1.48;;;;;;;19.41;55.28;96839.78;10284607;28;20039;-26
2023/09/28 01:08:30;;;;;;;1.80;1.50;;;;;;;19.45;54.86;96841.44;10283577;28;20035;-26
2023/09/28 01:13:31;;;;;;;2.73;1.97;;;;;;;19.44;54.86;96834.66;10280074;28;20535;-27
2023/09/28 01:18:32;;;;;;;2.13;1.92;;;;;;;19.42;54.63;96828.75;10285510;28;20552;-27
2023/09/28 01:23:32;;;;;;;2.88;1.70;;;;;;;19.43;54.70;96831.28;10278773;28;20058;-28
2023/09/28 01:28:34;;;;;;;3.25;1.92;;;;;;;19.41;54.64;96843.13;10280574;28;20041;-27
2023/09/28 01:33:34;;;;;;;2.58;1.67;;;;;;;19.41;54.68;96837.22;10285339;28;20035;-27
2023/09/28 01:38:39;;;;;;;2.50;1.60;;;;;;;19.42;54.56;96834.66;10282296;28;20035;-26
2023/09/28 01:43:40;;;;;;;1.92;1.70;;;;;;;19.42;54.40;96828.75;10278097;28;20027;-27
2023/09/28 01:48:40;;;;;;;3.15;1.95;;;;;;;19.39;54.38;96828.75;10289293;28;20493;-26
2023/09/28 01:53:41;;;;;;;3.23;2.07;;;;;;;19.44;54.15;96830.41;10289869;28;20038;-27
2023/09/28 01:58:41;;;;;;;2.58;1.70;;;;;;;19.43;54.15;96843.97;10283059;28;20305;-26
2023/09/28 02:03:41;;;;;;;2.43;1.77;;;;;;;19.38;54.21;96843.16;10287957;28;20034;-27
2023/09/28 02:08:42;;;;;;;2.43;1.60;;;;;;;19.40;54.10;96843.13;10288877;28;20704;-27
2023/09/28 02:13:42;;;;;;;2.90;2.20;;;;;;;19.42;54.17;96834.66;10288957;28;20037;-27
2023/09/28 02:18:42;;;;;;;2.20;2.00;;;;;;;19.40;54.07;96817.75;10290366;28;20309;-27
2023/09/28 02:23:43;;;;;;;2.73;2.17;;;;;;;19.44;53.88;96811.81;10291426;28;20031;-27
2023/09/28 02:28:43;;;;;;;1.83;1.60;;;;;;;19.46;53.72;96817.72;10280061;28;20046;-26
2023/09/28 02:33:45;;;;;;;2.67;2.20;;;;;;;19.46;53.84;96827.88;10289076;28;20039;-26
2023/09/28 02:38:46;;;;;;;2.45;1.95;;;;;;;19.43;53.92;96845.69;10289655;28;20035;-27
2023/09/28 02:43:47;;;;;;;1.52;1.25;;;;;;;19.38;54.48;96827.06;10287327;28;20030;-26
2023/09/28 02:48:48;;;;;;;2.00;1.60;;;;;;;19.40;53.88;96831.28;10287376;28;20022;-27
2023/09/28 02:53:49;;;;;;;2.30;1.80;;;;;;;19.40;53.83;96822.81;10290206;28;20061;-25
2023/09/28 02:58:51;;;;;;;3.08;1.92;;;;;;;19.43;53.79;96813.50;10285263;28;20383;-28
2023/09/28 03:03:53;;;;;;;2.20;1.80;;;;;;;19.42;53.80;96831.31;10289472;28;20357;-27
2023/09/28 03:08:54;;;;;;;2.58;1.98;;;;;;;19.42;54.04;96849.06;10287663;28;20490;-27
2023/09/28 03:13:54;;;;;;;3.30;2.10;;;;;;;19.38;53.84;96852.44;10300812;28;20085;-27
2023/09/28 03:18:57;;;;;;;1.70;1.60;;;;;;;19.38;53.91;96847.38;10289338;28;20045;-26
2023/09/28 03:23:59;;;;;;;2.15;1.70;;;;;;;19.34;54.01;96845.69;10291207;28;20033;-26
2023/09/28 03:29:00;;;;;;;2.67;1.90;;;;;;;19.35;53.82;96839.78;10285314;28;20109;-27
2023/09/28 03:34:00;;;;;;;2.78;1.95;;;;;;;19.36;53.56;96837.25;10299254;28;20376;-27
2023/09/28 03:39:00;;;;;;;3.00;2.00;;;;;;;19.37;53.76;96851.63;10281921;28;20034;-27
2023/09/28 03:44:01;;;;;;;2.80;2.00;;;;;;;19.38;53.70;96848.22;10282171;28;20038;-27
2023/09/28 03:49:02;;;;;;;3.60;2.20;;;;;;;19.41;53.64;96843.13;10289910;28;20034;-27
2023/09/28 03:54:02;;;;;;;2.38;1.55;;;;;;;19.42;53.40;96844.00;10282711;28;20481;-27
2023/09/28 03:59:03;;;;;;;2.75;1.90;;;;;;;19.39;53.92;96849.06;10284187;28;20034;-26
2023/09/28 04:04:04;;;;;;;2.73;2.20;;;;;;;19.42;53.45;96856.69;10284001;28;20027;-27
2023/09/28 04:09:07;;;;;;;2.08;1.70;;;;;;;19.46;53.57;96848.19;10284320;28;20088;-27
2023/09/28 04:14:08;;;;;;;2.28;1.85;;;;;;;19.43;53.81;96855.84;10283491;28;20104;-27
2023/09/28 04:19:08;;;;;;;2.50;1.92;;;;;;;19.42;53.72;96833.84;10282913;28;20045;-27
2023/09/28 04:24:09;;;;;;;2.57;1.93;;;;;;;19.43;53.85;96826.19;10287112;28;20027;-27
2023/09/28 04:29:09;;;;;;;2.20;1.60;;;;;;;19.47;53.60;96834.66;10284103;28;20401;-26
2023/09/28 04:34:13;;;;;;;2.73;2.10;;;;;;;19.47;53.65;96842.28;10286298;28;20030;-26
2023/09/28 04:39:13;;;;;;;1.95;1.35;;;;;;;19.46;53.71;96854.13;10285168;28;20508;-27
2023/09/28 04:44:13;;;;;;;2.13;1.67;;;;;;;19.46;53.79;96860.91;10275787;28;20041;-27
2023/09/28 04:49:14;;;;;;;2.43;1.60;;;;;;;19.43;53.93;96866.00;10283327;28;20050;-27
2023/09/28 04:54:14;;;;;;;2.63;1.70;;;;;;;19.45;54.00;96884.59;10285076;28;20035;-27
2023/09/28 04:59:15;;;;;;;2.10;1.63;;;;;;;19.41;54.09;96888.84;10277377;28;20066;-27
2023/09/28 05:04:16;;;;;;;2.93;1.90;;;;;;;19.43;53.97;96896.47;10286013;28;20087;-27
2023/09/28 05:09:16;;;;;;;2.65;1.80;;;;;;;19.45;53.84;96897.31;10282024;28;20405;-26
2023/09/28 05:14:17;;;;;;;1.50;1.40;;;;;;;19.44;53.64;96901.53;10280824;28;20054;-27
2023/09/28 05:19:17;;;;;;;2.57;1.60;;;;;;;19.45;53.69;96894.75;10281679;28;20043;-26
2023/09/28 05:24:17;;;;;;;1.83;1.53;;;;;;;19.45;53.85;96898.16;10285729;28;20288;-27
2023/09/28 05:29:18;;;;;;;3.53;1.60;;;;;;;19.45;53.86;96904.91;10292435;28;20066;-27
2023/09/28 05:34:20;;;;;;;3.63;1.63;;;;;;;19.41;54.26;96899.00;10292989;28;20027;-27
2023/09/28 05:39:21;;;;;;;2.85;1.85;;;;;;;19.36;53.95;96895.63;10293066;28;20050;-26
2023/09/28 05:44:22;;;;;;;3.85;1.88;;;;;;;19.38;54.16;96888.00;10288417;28;20452;-27
2023/09/28 05:49:24;;;;;;;2.27;1.80;;;;;;;19.38;53.98;96888.84;10291076;28;20031;-27
2023/09/28 05:54:26;;;;;;;1.92;1.67;;;;;;;19.38;53.98;96890.53;10297071;28;20051;-27
2023/09/28 05:59:26;;;;;;;2.35;1.67;;;;;;;19.38;54.04;96908.31;10290501;28;20030;-26
2023/09/28 06:04:27;;;;;;;2.57;1.47;;;;;;;19.37;53.78;96930.31;10289796;28;20785;-26
2023/09/28 06:09:28;;;;;;;2.55;1.58;;;;;;;19.34;53.96;96937.09;10290529;28;20282;-27
2023/09/28 06:14:28;;;;;;;2.75;1.83;;;;;;;19.35;53.99;96956.56;10290383;28;20042;-27
2023/09/28 06:19:28;;;;;;;2.63;1.80;;;;;;;19.33;53.86;96943.03;10292103;28;20042;-26
2023/09/28 06:24:29;;;;;;;2.30;1.83;;;;;;;19.38;53.94;96933.69;10290253;28;20097;-27
2023/09/28 06:29:32;;;;;;;1.73;1.50;;;;;;;19.43;53.54;96937.09;10292608;28;20266;-27
2023/09/28 06:34:32;;;;;;;2.05;1.45;;;;;;;19.38;53.90;96939.63;10289365;28;20432;-27
2023/09/28 06:39:32;;;;;;;2.33;1.47;;;;;;;19.34;53.56;96932.84;10291446;28;20046;-27
2023/09/28 06:44:36;;;;;;;2.37;1.90;;;;;;;19.40;53.88;96947.22;10285660;28;20649;-27
2023/09/28 06:49:36;;;;;;;1.90;1.48;;;;;;;19.35;53.97;96954.00;10292364;28;20039;-27
2023/09/28 06:54:38;;;;;;;2.20;1.70;;;;;;;19.32;54.06;96944.69;10286096;28;20043;-27
2023/09/28 06:59:38;;;;;;;1.35;1.25;;;;;;;19.31;53.79;96942.16;10285412;28;20508;-27
2023/09/28 07:04:38;;;;;;;2.93;1.83;;;;;;;19.35;53.88;96954.00;10288115;28;20041;-25
2023/09/28 07:09:39;;;;;;;2.17;1.60;;;;;;;19.38;53.82;96954.00;10289402;28;20038;-27
2023/09/28 07:14:39;;;;;;;1.85;1.45;;;;;;;19.35;53.89;96954.84;10288473;28;20093;-27
2023/09/28 07:19:42;;;;;;;2.10;1.67;;;;;;;19.37;53.85;96954.84;10291230;28;20035;-28
2023/09/28 07:24:43;;;;;;;1.98;1.48;;;;;;;19.37;53.46;96962.47;10286585;28;20042;-27
2023/09/28 07:29:43;;;;;;;2.60;1.52;;;;;;;19.41;53.64;96962.47;10283375;28;20829;-27
2023/09/28 07:34:44;;;;;;;2.38;1.67;;;;;;;19.45;53.74;96960.78;10288668;28;20045;-26
2023/09/28 07:39:44;;;;;;;1.80;1.50;;;;;;;19.46;54.08;96972.63;10289741;28;20047;-27
2023/09/28 07:44:46;;;;;;;3.30;1.73;;;;;;;19.47;54.40;96964.16;10282537;28;20046;-27
2023/09/28 07:49:47;;;;;;;1.92;1.23;;;;;;;19.46;54.42;96967.56;10285566;28;20038;-27
2023/09/28 07:54:47;;;;;;;3.00;2.00;;;;;;;19.47;54.43;96977.72;10287361;28;20030;-27
2023/09/28 07:59:48;;;;;;;1.77;1.50;;;;;;;19.48;54.46;96973.47;10282920;28;20039;-27
2023/09/28 08:04:48;;;;;;;2.30;1.70;;;;;;;19.49;54.57;96970.09;10285307;28;20034;-28
2023/09/28 08:09:49;;;;;;;2.20;2.00;;;;;;;19.49;54.82;96976.00;10287896;28;20042;-27
2023/09/28 08:14:49;;;;;;;2.50;1.50;;;;;;;19.45;54.77;96961.66;10283066;28;20037;-27
2023/09/28 08:19:50;;;;;;;1.97;1.30;;;;;;;19.50;54.76;96966.72;10280268;28;20035;-27
2023/09/28 08:24:50;;;;;;;1.67;1.33;;;;;;;19.46;54.90;96954.84;10287662;28;20038;-29
2023/09/28 08:29:50;;;;;;;1.70;1.37;;;;;;;19.50;54.87;96964.19;10285935;28;20117;-27
2023/09/28 08:34:51;;;;;;;1.30;1.17;;;;;;;19.50;55.00;96964.19;10284202;28;20031;-27
2023/09/28 08:39:51;;;;;;;1.93;1.23;;;;;;;19.50;55.13;96965.00;10287279;28;20321;-27
2023/09/28 08:44:59;;;;;;;1.42;1.08;;;;;;;19.48;55.03;96966.72;10280110;28;20687;-27
2023/09/28 08:50:01;;;;;;;2.10;1.70;;;;;;;19.50;55.14;96965.00;10274992;28;20066;-27
2023/09/28 08:55:03;;;;;;;1.40;1.10;;;;;;;19.50;55.23;96969.25;10285825;28;20098;-27
2023/09/28 09:00:09;;;;;;;1.77;1.30;;;;;;;19.48;55.11;96968.38;10279618;28;20063;-27
2023/09/28 09:05:12;;;;;;;2.00;1.10;;;;;;;19.49;55.35;96965.84;10283428;28;20042;-26
2023/09/28 09:10:17;;;;;;;1.50;1.40;;;;;;;19.51;55.62;96965.88;10285042;28;20031;-27
2023/09/28 09:15:18;;;;;;;1.35;1.10;;;;;;;19.51;55.59;96968.41;10284735;28;20034;-26
2023/09/28 09:20:21;;;;;;;2.13;1.42;;;;;;;19.49;55.41;96978.56;10285578;28;20047;-26
2023/09/28 09:25:22;;;;;;;1.63;1.40;;;;;;;19.51;55.44;96968.41;10282963;28;20066;-27
2023/09/28 09:30:27;;;;;;;1.33;1.13;;;;;;;19.50;55.47;96965.00;10288041;28;20030;-27
2023/09/28 09:35:28;;;;;;;1.40;0.98;;;;;;;19.51;55.59;96955.72;10288815;28;20034;-28
2023/09/28 09:40:30;;;;;;;2.50;1.55;;;;;;;19.52;56.01;96952.31;10285733;28;20071;-27
2023/09/28 09:45:30;;;;;;;1.77;1.30;;;;;;;19.51;55.63;96938.75;10291134;28;20043;-27
2023/09/28 09:50:32;;;;;;;2.30;1.27;;;;;;;19.58;55.62;96932.84;10281183;28;20047;-27
2023/09/28 09:55:38;;;;;;;2.05;1.38;;;;;;;19.62;56.23;96933.69;10280743;28;20046;-27
2023/09/28 10:00:41;;;;;;;2.42;1.30;;;;;;;19.64;56.53;96939.59;10287828;28;20046;-27
2023/09/28 10:05:42;;;;;;;1.80;1.20;;;;;;;19.65;56.81;96933.66;10281542;28;20085;-28
2023/09/28 10:10:43;;;;;;;1.50;1.23;;;;;;;19.65;57.00;96928.59;10287161;28;20088;-27
2023/09/28 10:15:46;;;;;;;4.15;1.30;;;;;;;19.66;57.07;96937.94;10291789;28;20119;-26
2023/09/28 10:20:47;;;;;;;1.95;1.40;;;;;;;19.65;57.63;96933.66;10290780;28;20050;-26
2023/09/28 10:26:10;;;;;;;1.80;1.25;;;;;;;19.64;57.45;96931.97;10285776;28;20042;-25
2023/09/28 10:31:15;;;;;;;1.48;1.17;;;;;;;19.66;57.28;96935.38;10286983;28;20035;-27
2023/09/28 10:36:15;;;;;;;1.63;1.33;;;;;;;19.67;57.48;96926.91;10292943;28;20154;-26
2023/09/28 10:41:17;;;;;;;1.50;1.23;;;;;;;19.59;57.37;96923.53;10284193;28;20046;-25
2023/09/28 10:46:18;;;;;;;1.40;1.25;;;;;;;19.66;57.72;96945.56;10290529;28;20038;-27
2023/09/28 10:51:21;;;;;;;1.98;1.40;;;;;;;19.67;58.06;96939.63;10296248;28;20187;-27
2023/09/28 10:56:21;;;;;;;4.18;1.50;;;;;;;19.68;57.33;96933.69;10282973;28;20035;-26
2023/09/28 11:01:21;;;;;;;2.57;1.90;;;;;;;19.67;57.45;96942.97;10291493;28;20035;-27
2023/09/28 11:06:23;;;;;;;2.40;1.53;;;;;;;19.67;57.43;96939.63;10286408;28;20031;-27
2023/09/28 11:11:23;;;;;;;3.08;1.70;;;;;;;19.64;57.60;96926.91;10286011;28;20614;-26
2023/09/28 11:16:25;;;;;;;4.28;1.70;;;;;;;19.69;56.86;96941.28;10293601;28;20043;-27
2023/09/28 11:21:26;;;;;;;3.42;2.10;;;;;;;19.70;56.96;96934.53;10289643;28;20038;-26
2023/09/28 11:26:28;;;;;;;2.30;1.60;;;;;;;19.69;56.89;96935.38;10280100;28;20038;-26
2023/09/28 11:31:35;;;;;;;3.03;1.67;;;;;;;19.68;57.39;96931.16;10305184;28;20039;-27
2023/09/28 11:36:35;;;;;;;;;;;;;;;19.70;56.91;96921.81;10278658;28;20529;-27
2023/09/28 11:41:54;;;;;;;3.35;2.28;;;;;;;19.70;57.37;96924.34;10282215;28;20008;-27
2023/09/28 11:46:56;;;;;;;2.30;1.60;;;;;;;19.69;57.22;96909.97;10288140;28;20512;-27
2023/09/28 11:51:56;;;;;;;3.67;2.00;;;;;;;19.67;57.13;96904.06;10296400;28;20046;-27
2023/09/28 11:56:57;;;;;;;3.07;2.00;;;;;;;19.68;57.24;96904.03;10286066;28;20489;-27
2023/09/28 12:01:58;;;;;;;2.30;1.85;;;;;;;19.70;57.14;96899.81;10299187;28;20784;-27
2023/09/28 12:07:01;;;;;;;2.20;1.70;;;;;;;19.69;57.24;96897.28;10292852;28;20057;-26
2023/09/28 12:12:02;;;;;;;4.57;2.00;;;;;;;19.69;57.08;96894.72;10284004;28;20077;-27
2023/09/28 12:17:03;;;;;;;3.97;2.05;;;;;;;19.72;57.37;96887.94;10287327;28;20026;-26
2023/09/28 12:22:04;;;;;;;4.07;3.15;;;;;;;19.73;57.04;96891.31;10285934;28;20026;-27
2023/09/28 12:27:06;;;;;;;5.70;2.53;;;;;;;19.71;57.10;96877.78;10285858;28;20030;-26
2023/09/28 12:32:07;;;;;;;3.65;1.95;;;;;;;19.72;57.38;96876.94;10286221;28;20101;-26
2023/09/28 12:37:09;;;;;;;4.17;2.37;;;;;;;19.73;57.40;96876.06;10284696;28;20096;-27
2023/09/28 12:42:13;;;;;;;4.65;2.58;;;;;;;19.72;57.63;96869.31;10285788;28;20034;-26
2023/09/28 12:47:13;;;;;;;4.93;2.15;;;;;;;19.67;57.42;96859.16;10280893;28;20039;-27
2023/09/28 12:52:14;;;;;;;3.70;2.20;;;;;;;19.71;57.35;96862.53;10280091;28;20034;-27
2023/09/28 12:57:15;;;;;;;4.97;2.40;;;;;;;19.71;57.55;96860.88;10285842;28;20809;-27
2023/09/28 13:02:15;;;;;;;6.43;3.00;;;;;;;19.70;57.57;96859.16;10286579;28;20105;-27
2023/09/28 13:07:15;;;;;;;4.70;2.67;;;;;;;19.72;57.47;96860.00;10284946;28;20090;-27
2023/09/28 13:12:16;;;;;;;4.57;2.10;;;;;;;19.73;57.60;96855.75;10285082;28;20029;-27
2023/09/28 13:17:18;;;;;;;3.63;2.47;;;;;;;19.72;57.59;96859.16;10290958;28;20294;-27
2023/09/28 13:22:19;;;;;;;3.22;2.10;;;;;;;19.71;57.61;96848.16;10285291;28;20404;-27
2023/09/28 13:27:20;;;;;;;4.03;2.35;;;;;;;19.69;57.61;96834.59;10283898;28;20038;-27
2023/09/28 13:32:23;;;;;;;3.05;2.10;;;;;;;19.72;57.52;96833.75;10296538;28;20501;-27
2023/09/28 13:37:23;;;;;;;2.85;2.13;;;;;;;19.72;57.61;96839.69;10283489;28;20039;-26
2023/09/28 13:42:24;;;;;;;4.43;2.60;;;;;;;19.72;57.56;96838.81;10286245;28;20038;-27
2023/09/28 13:47:26;;;;;;;4.07;2.43;;;;;;;19.70;57.68;96825.28;10304098;28;20042;-27
2023/09/28 13:52:27;;;;;;;7.13;2.38;;;;;;;19.70;57.73;96830.38;10291276;28;20034;-27
2023/09/28 13:57:27;;;;;;;3.65;2.50;;;;;;;19.72;57.58;96833.75;10290633;28;20072;-27
2023/09/28 14:02:28;;;;;;;2.47;1.67;;;;;;;19.72;57.70;96838.81;10292684;28;20046;-27
2023/09/28 14:07:28;;;;;;;2.92;1.75;;;;;;;19.68;57.65;96827.00;10298961;28;20626;-28
2023/09/28 14:12:28;;;;;;;2.87;2.17;;;;;;;19.71;57.68;96827.84;10295218;28;20511;-27
2023/09/28 14:17:30;;;;;;;2.60;1.83;;;;;;;19.70;57.67;96826.16;10292361;28;20062;-28
2023/09/28 14:22:30;;;;;;;4.25;2.25;;;;;;;19.69;57.44;96829.50;10289600;28;20047;-27
2023/09/28 14:27:35;;;;;;;3.67;2.20;;;;;;;19.69;57.63;96823.59;10290695;28;20031;-27
2023/09/28 14:32:36;;;;;;;3.00;2.10;;;;;;;19.72;57.70;96821.03;10291817;28;20046;-27
2023/09/28 14:37:37;;;;;;;4.05;2.53;;;;;;;19.70;57.80;96816.00;10290166;28;20031;-27
2023/09/28 14:42:37;;;;;;;3.72;2.20;;;;;;;19.71;57.61;96821.91;10288742;28;20498;-27
2023/09/28 14:47:38;;;;;;;2.38;1.98;;;;;;;19.71;57.68;96816.81;10290810;28;20624;-27
2023/09/28 14:52:39;;;;;;;2.67;1.92;;;;;;;19.71;57.42;96812.59;10291086;28;20045;-27
2023/09/28 14:57:39;;;;;;;3.90;2.08;;;;;;;19.68;57.46;96809.22;10286897;28;20039;-27
2023/09/28 15:02:40;;;;;;;3.37;1.87;;;;;;;19.69;57.69;96814.28;10287955;28;20093;-27
2023/09/28 15:07:41;;;;;;;2.40;1.83;;;;;;;19.68;57.67;96810.03;10288443;28;20042;-27
2023/09/28 15:12:41;;;;;;;2.35;1.67;;;;;;;19.71;57.79;96806.66;10287419;28;20035;-27
2023/09/28 15:17:41;;;;;;;3.97;1.90;;;;;;;19.71;57.57;96806.66;10289425;28;20512;-27
2023/09/28 15:22:42;;;;;;;3.20;2.00;;;;;;;19.70;57.55;96804.97;10286869;28;20405;-27
2023/09/28 15:27:42;;;;;;;4.40;2.25;;;;;;;19.70;57.65;96794.81;10286717;28;20038;-26
2023/09/28 15:32:43;;;;;;;8.45;2.83;;;;;;;19.70;58.92;96795.66;10289102;28;20042;-27
2023/09/28 15:37:43;;;;;;;4.63;2.03;;;;;;;19.72;57.78;96804.13;10286763;28;20486;-26
2023/09/28 15:42:44;;;;;;;5.30;2.20;;;;;;;19.72;57.81;96799.03;10286069;28;20047;-27
2023/09/28 15:47:44;;;;;;;2.43;1.83;;;;;;;19.68;57.75;96776.19;10292740;28;20994;-27
2023/09/28 15:52:45;;;;;;;5.63;1.63;;;;;;;19.71;57.71;96781.25;10284503;28;20490;-27
2023/09/28 15:57:45;;;;;;;3.77;2.00;;;;;;;19.71;57.91;96787.19;10282672;28;20740;-28
2023/09/28 16:02:46;;;;;;;4.63;2.13;;;;;;;19.73;57.86;96794.78;10290699;28;20045;-27
2023/09/28 16:07:48;;;;;;;6.88;2.47;;;;;;;19.76;58.18;96790.53;10285096;28;21347;-26
2023/09/28 16:12:49;;;;;;;8.70;2.35;;;;;;;19.73;58.32;96802.41;10283828;28;20513;-27
2023/09/28 16:17:49;;;;;;;14.37;2.67;;;;;;;19.74;57.81;96811.72;10287080;28;20034;-27
2023/09/28 16:22:49;;;;;;;11.97;2.30;;;;;;;19.72;57.77;96809.19;10287369;28;20030;-27
2023/09/28 16:27:50;;;;;;;10.63;2.07;;;;;;;19.72;57.86;96813.41;10289137;28;20031;-27
2023/09/28 16:32:50;;;;;;;5.93;2.20;;;;;;;19.73;57.63;96815.09;10291043;28;20341;-26
2023/09/28 16:37:51;;;;;;;3.13;1.80;;;;;;;19.72;57.61;96824.44;10289646;28;20027;-26
2023/09/28 16:42:52;;;;;;;3.33;2.20;;;;;;;19.66;57.84;96816.84;10283021;28;20034;-26
2023/09/28 16:47:53;;;;;;;3.17;1.98;;;;;;;19.73;57.57;96826.13;10285643;28;20034;-27
2023/09/28 16:52:54;;;;;;;4.68;1.90;;;;;;;19.73;57.61;96832.88;10282786;28;20030;-26
2023/09/28 16:57:55;;;;;;;5.25;2.08;;;;;;;19.71;57.52;96832.91;10281887;28;20038;-26
2023/09/28 17:02:55;;;;;;;4.33;2.03;;;;;;;19.71;57.73;96838.00;10286410;28;20504;-25
2023/09/28 17:07:55;;;;;;;4.90;2.40;;;;;;;19.72;57.99;96833.75;10284265;28;20645;-26
2023/09/28 17:12:56;;;;;;;4.33;1.77;;;;;;;19.73;57.46;96830.34;10277772;28;20030;-27
2023/09/28 17:17:56;;;;;;;4.10;1.80;;;;;;;19.73;57.81;96837.97;10288866;28;20578;-27
2023/09/28 17:22:56;;;;;;;7.70;2.70;;;;;;;19.70;59.26;96838.00;10289227;28;20290;-27
2023/09/28 17:27:57;;;;;;;3.37;1.73;;;;;;;19.75;58.06;96838.84;10289533;28;20053;-27
2023/09/28 17:32:57;;;;;;;4.10;1.87;;;;;;;19.73;57.58;96840.50;10292971;28;20042;-27
2023/09/28 17:37:58;;;;;;;2.77;1.80;;;;;;;19.74;57.53;96847.28;10290260;28;20353;-27
2023/09/28 17:42:58;;;;;;;8.13;2.70;;;;;;;19.73;58.83;96849.00;10289127;28;20050;-27
2023/09/28 17:47:58;;;;;;;4.30;2.03;;;;;;;19.73;58.35;96853.22;10295565;28;20647;-27
2023/09/28 17:52:59;;;;;;;4.20;1.73;;;;;;;19.72;57.71;96859.16;10292185;28;20539;-26
2023/09/28 17:58:00;;;;;;;3.97;2.30;;;;;;;19.74;57.85;96867.59;10288916;28;20093;-26
2023/09/28 18:03:03;;;;;;;5.15;2.10;;;;;;;19.74;57.97;96868.47;10285171;28;20676;-27
2023/09/28 18:08:06;;;;;;;4.05;2.08;;;;;;;19.74;57.88;96872.69;10290309;28;20031;-26
2023/09/28 18:13:07;;;;;;;4.35;2.42;;;;;;;19.76;58.09;96883.72;10284075;28;20117;-26
2023/09/28 18:18:08;;;;;;;4.50;1.77;;;;;;;19.80;57.77;96896.41;10290924;28;20041;-27
2023/09/28 18:23:08;;;;;;;3.47;2.10;;;;;;;19.85;57.59;96896.38;10287808;28;20449;-27
2023/09/28 18:28:09;;;;;;;3.63;1.95;;;;;;;19.85;57.43;96896.38;10287527;28;20118;-27
2023/09/28 18:33:09;;;;;;;3.53;2.30;;;;;;;19.86;57.67;96896.38;10290513;28;20043;-27
2023/09/28 18:38:10;;;;;;;3.93;2.10;;;;;;;19.88;57.62;96907.41;10287587;28;20406;-27
2023/09/28 18:43:10;;;;;;;5.05;2.80;;;;;;;19.89;57.61;96908.22;10285202;28;20122;-27
2023/09/28 18:48:12;;;;;;;4.13;2.17;;;;;;;19.90;57.70;96910.78;10284727;28;20066;-27
2023/09/28 18:53:12;;;;;;;3.40;1.77;;;;;;;19.89;57.71;96919.25;10287386;28;20039;-27
2023/09/28 18:58:13;;;;;;;4.88;2.20;;;;;;;19.89;58.23;96926.00;10285895;28;20429;-26
2023/09/28 19:03:13;;;;;;;5.90;2.27;;;;;;;19.92;58.96;96929.38;10297183;28;20449;-27
2023/09/28 19:08:13;;;;;;;3.40;2.27;;;;;;;19.91;60.22;96930.25;10284852;28;20035;-26
2023/09/28 19:13:14;;;;;;;8.77;3.20;;;;;;;19.96;60.29;96941.25;10281915;28;20294;-26
2023/09/28 19:18:15;;;;;;;4.22;2.50;;;;;;;19.99;58.95;96925.13;10291288;28;20543;-27
2023/09/28 19:23:15;;;;;;;6.13;2.97;;;;;;;19.99;59.13;96928.53;10273957;28;20026;-27
2023/09/28 19:28:16;;;;;;;3.37;1.90;;;;;;;19.99;58.50;96932.75;10272644;28;20055;-30
2023/09/28 19:33:16;;;;;;;5.78;2.38;;;;;;;19.98;58.13;96928.53;10285271;28;20047;-26
2023/09/28 19:38:17;;;;;;;3.73;2.10;;;;;;;19.99;58.47;96932.75;10281611;28;20039;-27
2023/09/28 19:43:17;;;;;;;3.40;2.17;;;;;;;19.97;58.32;96945.50;10282191;28;20035;-27
2023/09/28 19:48:18;;;;;;;6.35;2.42;;;;;;;19.96;58.08;96951.41;10288111;28;20765;-26
2023/09/28 19:53:18;;;;;;;4.50;1.93;;;;;;;19.94;58.12;96952.28;10288526;28;20528;-26
2023/09/28 19:58:18;;;;;;;3.20;2.00;;;;;;;19.93;57.92;96948.03;10288185;28;20489;-27
2023/09/28 20:03:19;;;;;;;6.10;2.27;;;;;;;19.94;57.80;96958.19;10288661;28;20282;-27
2023/09/28 20:08:20;;;;;;;3.58;2.45;;;;;;;19.91;58.01;96947.22;10287126;28;20030;-27
2023/09/28 20:13:21;;;;;;;6.53;2.17;;;;;;;19.91;58.02;96954.81;10285062;28;20473;-27
2023/09/28 20:18:22;;;;;;;8.77;2.20;;;;;;;19.91;57.75;96958.19;10288288;28;20027;-27
2023/09/28 20:23:23;;;;;;;4.78;2.00;;;;;;;19.91;57.64;96954.81;10282549;28;20414;-27
2023/09/28 20:28:24;;;;;;;3.60;1.80;;;;;;;19.91;57.80;96953.13;10279460;28;20039;-26
2023/09/28 20:33:24;;;;;;;3.88;2.10;;;;;;;19.91;57.88;96937.88;10285006;28;20053;-27
2023/09/28 20:38:25;;;;;;;4.97;2.25;;;;;;;19.92;57.83;96948.88;10279441;28;20035;-27
2023/09/28 20:43:25;;;;;;;4.93;2.15;;;;;;;19.90;57.78;96955.66;10280204;28;20035;-26
2023/09/28 20:48:26;;;;;;;3.10;1.87;;;;;;;19.90;57.78;96955.66;10286706;28;20059;-27
2023/09/28 20:53:26;;;;;;;3.57;1.73;;;;;;;19.90;57.97;96965.81;10284514;28;20298;-27
2023/09/28 20:58:26;;;;;;;4.83;2.33;;;;;;;19.88;57.84;96968.38;10280180;28;20049;-26
2023/09/28 21:03:28;;;;;;;4.03;2.10;;;;;;;19.88;57.86;96972.59;10285378;28;20174;-27
2023/09/28 21:08:29;;;;;;;3.65;1.92;;;;;;;19.88;57.88;96973.47;10286331;28;20035;-27
2023/09/28 21:13:30;;;;;;;4.13;1.43;;;;;;;19.83;57.85;96959.91;10282531;28;20416;-27
2023/09/28 21:18:30;;;;;;;4.70;2.05;;;;;;;19.86;57.88;96969.22;10278707;28;20410;-26
2023/09/28 21:23:31;;;;;;;4.20;2.20;;;;;;;19.85;57.73;96967.53;10286428;28;20110;-26
2023/09/28 21:28:34;;;;;;;2.77;1.50;;;;;;;19.86;57.74;96971.75;10279264;28;20397;-27
2023/09/28 21:33:34;;;;;;;3.58;1.83;;;;;;;19.85;57.91;96957.38;10278882;28;20043;-26
2023/09/28 21:38:35;;;;;;;2.23;1.57;;;;;;;19.85;57.74;96967.53;10284747;28;20041;-27
2023/09/28 21:43:37;;;;;;;2.78;1.67;;;;;;;19.82;57.55;96963.28;10278428;28;20351;-27
2023/09/28 21:48:38;;;;;;;3.60;1.70;;;;;;;19.84;57.87;96969.22;10279603;28;20560;-26
2023/09/28 21:53:39;;;;;;;3.38;1.92;;;;;;;19.84;58.19;96970.94;10283725;28;20035;-27
2023/09/28 21:58:39;;;;;;;3.33;2.20;;;;;;;19.83;57.75;96971.78;10278566;28;20035;-27
2023/09/28 22:03:40;;;;;;;3.13;1.53;;;;;;;19.82;57.83;96977.69;10281344;28;20364;-27
2023/09/28 22:08:40;;;;;;;2.25;1.42;;;;;;;19.83;57.35;96971.78;10287893;28;20038;-26
2023/09/28 22:13:41;;;;;;;4.17;1.57;;;;;;;19.82;57.91;96967.50;10287297;28;20039;-26
2023/09/28 22:18:42;;;;;;;2.88;1.55;;;;;;;19.81;58.02;96970.91;10288237;28;20302;-26
2023/09/28 22:23:42;;;;;;;1.90;1.40;;;;;;;19.83;57.77;96980.22;10291884;28;20039;-27
2023/09/28 22:28:43;;;;;;;2.37;1.53;;;;;;;19.83;57.76;96979.41;10284536;28;20038;-26
2023/09/28 22:33:43;;;;;;;2.07;1.40;;;;;;;19.81;57.62;96979.41;10291369;28;20289;-27
2023/09/28 22:38:44;;;;;;;3.85;1.98;;;;;;;19.81;57.75;96976.00;10286379;28;20544;-26
2023/09/28 22:43:44;;;;;;;2.58;1.50;;;;;;;19.81;57.62;96976.00;10283860;28;20089;-27
2023/09/28 22:48:45;;;;;;;2.67;1.57;;;;;;;19.82;57.84;96982.75;10291072;28;20482;-27
2023/09/28 22:53:45;;;;;;;2.57;1.73;;;;;;;19.82;57.89;96977.69;10287663;28;20294;-27
2023/09/28 22:58:46;;;;;;;3.67;1.63;;;;;;;19.82;57.65;96967.50;10283955;28;20708;-26
2023/09/28 23:03:46;;;;;;;3.50;1.45;;;;;;;19.80;57.52;96969.22;10290447;28;20037;-27
2023/09/28 23:08:46;;;;;;;3.27;1.50;;;;;;;19.79;57.58;96973.47;10278114;28;20042;-26
2023/09/28 23:13:47;;;;;;;1.73;1.23;;;;;;;19.80;57.70;96970.09;10286024;28;20034;-26
2023/09/28 23:18:48;;;;;;;2.00;1.47;;;;;;;19.80;57.55;96979.38;10290297;28;20037;-27